Time;durP1;ratioP1;P1;durP2;ratioP2;P2;SDS_P1;SDS_P2;PMS_P1;PMS_P2;Temp;Humidity;BMP_temperature;BMP_pressure;BME280_temperature;BME280_humidity;BME280_pressure;Samples;Min_cycle;Max_cycle;Signal;HPM_P1;HPM_P2
2023/07/27 00:01:50;169692.00;0.57;293.74;78445.00;0.26;136.35;;;;;15.40;2.80;;;;;;2280508;61;1399;-84
2023/07/27 00:04:18;199861.00;0.67;345.68;79839.00;0.27;138.76;;;;;15.40;2.80;;;;;;2280535;61;924;-86
2023/07/27 00:06:46;172018.00;0.57;297.74;67915.00;0.23;118.16;;;;;15.40;2.80;;;;;;2280498;61;1052;-87
2023/07/27 00:09:15;211682.00;0.71;366.03;74968.00;0.25;130.34;;;;;15.40;2.80;;;;;;2280610;61;1911;-86
2023/07/27 00:11:41;297582.00;0.99;513.76;82690.00;0.28;143.68;;;;;15.40;2.80;;;;;;2280491;61;1280;-87
2023/07/27 00:14:08;171721.00;0.57;297.23;84660.00;0.28;147.09;;;;;15.50;2.90;;;;;;2280535;61;1158;-86
2023/07/27 00:16:35;279148.00;0.93;482.07;71002.00;0.24;123.49;;;;;15.60;2.70;;;;;;2280509;61;1217;-87
2023/07/27 00:19:02;336925.00;1.12;581.39;123402.00;0.41;213.95;;;;;15.80;1.80;;;;;;2280466;61;1122;-86
2023/07/27 00:21:29;216722.00;0.72;374.70;41501.00;0.14;72.49;;;;;15.80;1.00;;;;;;2280558;61;1745;-88
2023/07/27 00:23:56;368452.00;1.23;635.58;73646.00;0.25;128.06;;;;;16.00;1.00;;;;;;2280528;61;1345;-89
2023/07/27 00:26:24;50911.00;0.17;88.76;0.00;0.00;0.62;;;;;16.20;1.00;;;;;;2280525;61;1093;-89
2023/07/27 00:28:51;118519240.00;395.06;67438248.00;92513.00;0.31;160.65;;;;;16.20;1.00;;;;;;2280367;61;2003;-87
2023/07/27 00:31:18;197532.00;0.66;341.68;79585.00;0.27;138.32;;;;;16.30;1.00;;;;;;2280529;61;992;-87
2023/07/27 00:33:45;209041.00;0.70;361.48;68713.00;0.23;119.54;;;;;16.40;1.00;;;;;;2280452;61;1304;-87
2023/07/27 00:36:11;394519.00;1.32;680.38;146919.00;0.49;254.50;;;;;16.30;1.00;;;;;;2280525;61;1133;-87
2023/07/27 00:38:38;174975.00;0.58;302.84;76991.00;0.26;133.84;;;;;16.50;1.00;;;;;;2280475;61;1113;-87
2023/07/27 00:41:05;172172.00;0.57;298.01;75735.00;0.25;131.67;;;;;16.30;1.00;;;;;;2280413;61;1084;-86
2023/07/27 00:43:33;23590.00;0.08;41.49;0.00;0.00;0.62;;;;;16.30;1.00;;;;;;2280478;61;1310;-87
2023/07/27 00:46:00;1179.00;0.00;2.66;0.00;0.00;0.62;;;;;16.30;1.00;;;;;;2280320;61;1067;-89
2023/07/27 00:48:28;117355872.00;391.19;65470040.00;117191280.00;390.64;65194716.00;;;;;16.00;1.00;;;;;;2280217;61;2001;-86
2023/07/27 00:50:56;233960.00;0.78;404.36;75865.00;0.25;131.89;;;;;16.00;1.00;;;;;;2280344;61;1019;-86
2023/07/27 00:53:23;34846.00;0.12;60.97;0.00;0.00;0.62;;;;;16.00;1.00;;;;;;2280379;61;1301;-87
2023/07/27 00:55:51;117685784.00;392.29;66024236.00;117476312.00;391.59;65671996.00;;;;;16.20;1.00;;;;;;2280400;61;1100;-87
2023/07/27 00:58:18;80646.00;0.27;140.15;0.00;0.00;0.62;;;;;16.20;1.00;;;;;;2280375;61;1124;-87
2023/07/27 01:00:47;8694.00;0.03;15.69;0.00;0.00;0.62;;;;;16.30;1.00;;;;;;2280400;61;1118;-88
2023/07/27 01:03:14;229225.00;0.76;396.22;46485.00;0.15;81.11;;;;;16.50;1.00;;;;;;2280376;61;2189;-88
2023/07/27 01:05:41;243154.00;0.81;420.18;83884.00;0.28;145.75;;;;;16.40;1.00;;;;;;2280432;61;1007;-86
2023/07/27 01:08:08;169814.00;0.57;293.95;77636.00;0.26;134.95;;;;;16.30;1.00;;;;;;2280378;61;1915;-88
2023/07/27 01:10:46;0.00;0.00;0.62;0.00;0.00;0.62;;;;;16.20;1.00;;;;;;2280305;61;1161;-87
2023/07/27 01:13:21;293948.00;0.98;507.52;81094.00;0.27;140.93;;;;;16.10;1.00;;;;;;2280319;61;1585;-86
2023/07/27 01:15:56;257058.00;0.86;444.09;67174.00;0.22;116.88;;;;;16.10;1.00;;;;;;2280409;61;1091;-87
2023/07/27 01:18:31;534657.00;1.78;921.52;120604.00;0.40;209.12;;;;;15.80;1.00;;;;;;2280294;61;1122;-87
2023/07/27 01:21:08;186402.00;0.62;322.51;65128.00;0.22;113.34;;;;;15.70;1.00;;;;;;2280312;61;1020;-87
2023/07/27 01:24:11;720852.00;2.40;1243.42;218669.00;0.73;378.05;;;;;15.50;1.20;;;;;;2280320;61;1382;-87
2023/07/27 01:27:07;570847.00;1.90;983.91;72826.00;0.24;126.64;;;;;15.50;1.60;;;;;;2278243;61;1177;-87
2023/07/27 01:30:09;832372.00;2.77;1437.64;175414.00;0.58;303.59;;;;;15.40;1.90;;;;;;2280287;61;1982;-86
2023/07/27 01:32:40;712190.00;2.37;1228.38;0.00;0.00;0.62;;;;;15.30;2.70;;;;;;2280227;61;1474;-88
2023/07/27 01:35:12;716452.00;2.39;1235.78;130498.00;0.43;226.19;;;;;15.10;2.60;;;;;;2280244;61;1133;-86
2023/07/27 01:37:42;517713.00;1.73;892.33;101233.00;0.34;175.70;;;;;15.10;3.00;;;;;;2280315;61;930;-89
2023/07/27 01:40:13;349806.00;1.17;603.53;81770.00;0.27;142.09;;;;;15.00;3.10;;;;;;2280240;61;1194;-89
2023/07/27 01:42:42;584582.00;1.95;1007.61;72223.00;0.24;125.60;;;;;14.70;4.20;;;;;;2279961;61;1395;-87
2023/07/27 01:45:11;907852.00;3.03;1569.91;81822.00;0.27;142.18;;;;;14.80;4.20;;;;;;2280152;61;1021;-88
2023/07/27 01:47:42;1003162.00;3.34;1738.07;132811.00;0.44;230.18;;;;;15.00;3.50;;;;;;2279022;55;3749;-87
2023/07/27 01:50:10;452715.00;1.51;780.45;71475.00;0.24;124.31;;;;;14.90;3.70;;;;;;2276240;55;3599;-86
2023/07/27 01:52:38;1306298.00;4.35;2283.64;225324.00;0.75;389.50;;;;;14.90;4.00;;;;;;2272092;61;1408;-88
2023/07/27 01:55:07;992068.00;3.31;1718.43;121100.00;0.40;209.98;;;;;14.90;3.80;;;;;;2272045;61;1567;-86
2023/07/27 01:57:35;793187.00;2.64;1369.24;114250.00;0.38;198.16;;;;;14.90;4.00;;;;;;2272103;61;1102;-87
2023/07/27 02:00:03;607642.00;2.03;1047.42;79082.00;0.26;137.45;;;;;14.90;4.10;;;;;;2272016;61;1116;-88
2023/07/27 02:02:31;1000864.00;3.34;1734.00;128802.00;0.43;223.26;;;;;14.90;4.10;;;;;;2271995;61;1404;-89
2023/07/27 02:04:59;1300649.00;4.34;2273.29;142998.00;0.48;247.74;;;;;14.90;3.90;;;;;;2272171;61;929;-88
2023/07/27 02:07:26;982272.00;3.27;1701.10;156840.00;0.52;271.59;;;;;14.90;4.70;;;;;;2272204;61;1125;-89
2023/07/27 02:09:53;599112.00;2.00;1032.69;81700.00;0.27;141.97;;;;;14.80;4.50;;;;;;2272036;61;2005;-88
2023/07/27 02:12:28;520686.00;1.74;897.45;75367.00;0.25;131.03;;;;;14.70;5.50;;;;;;2272091;61;1316;-88
2023/07/27 02:15:02;314875.00;1.05;543.49;0.00;0.00;0.62;;;;;14.60;5.70;;;;;;2272021;61;1044;-88
2023/07/27 02:17:36;695358.00;2.32;1199.19;4849.00;0.02;9.02;;;;;14.50;5.80;;;;;;2272055;61;1064;-87
2023/07/27 02:20:10;938896.00;3.13;1624.54;32376.00;0.11;56.70;;;;;14.50;6.10;;;;;;2272031;61;1082;-88
2023/07/27 02:22:39;737717.00;2.46;1272.71;9814.00;0.03;17.63;;;;;14.60;6.20;;;;;;2272010;61;1521;-88
2023/07/27 02:25:07;885110.00;2.95;1529.98;63345.00;0.21;110.26;;;;;14.80;5.40;;;;;;2272015;61;1060;-86
2023/07/27 02:27:34;622125.00;2.07;1072.44;26162.00;0.09;45.94;;;;;14.70;4.50;;;;;;2272058;61;1037;-88
2023/07/27 02:30:02;530351.00;1.77;914.10;0.00;0.00;0.62;;;;;14.80;4.40;;;;;;2271856;61;1999;-88
2023/07/27 02:32:30;830969.00;2.77;1435.19;52226.00;0.17;91.04;;;;;14.90;3.90;;;;;;2272022;61;1419;-88
2023/07/27 02:34:57;668109.00;2.23;1151.98;21219.00;0.07;37.38;;;;;15.00;3.60;;;;;;2271964;61;929;-87
2023/07/27 02:37:25;555037.00;1.85;956.64;9974.00;0.03;17.90;;;;;15.10;4.30;;;;;;2272005;61;1098;-88
2023/07/27 02:39:52;697076.00;2.32;1202.17;48557.00;0.16;84.69;;;;;15.10;3.60;;;;;;2272042;61;1083;-88
2023/07/27 02:42:19;435031.00;1.45;750.04;0.00;0.00;0.62;;;;;15.20;2.90;;;;;;2272068;61;1357;-88
2023/07/27 02:44:46;445197.00;1.48;767.52;0.00;0.00;0.62;;;;;15.20;3.10;;;;;;2271962;61;1029;-87
2023/07/27 02:47:13;376870.00;1.26;650.05;4064.00;0.01;7.66;;;;;15.00;3.90;;;;;;2271871;61;1488;-87
2023/07/27 02:49:40;771412.00;2.57;1331.31;19714.00;0.07;34.77;;;;;15.20;3.80;;;;;;2271925;61;1994;-90
2023/07/27 02:52:07;586456.00;1.95;1010.84;18398.00;0.06;32.50;;;;;15.30;2.80;;;;;;2272063;61;1377;-88
2023/07/27 02:54:36;413310.00;1.38;712.69;6648.00;0.02;12.14;;;;;15.40;3.50;;;;;;2272720;61;1095;-88
2023/07/27 02:57:02;822523.00;2.74;1420.43;18323.00;0.06;32.37;;;;;15.50;2.90;;;;;;2272704;61;1097;-88
2023/07/27 02:59:29;632757.00;2.11;1090.82;23868.00;0.08;41.97;;;;;15.70;2.50;;;;;;2272707;61;1064;-89
2023/07/27 03:01:56;449799.00;1.50;775.44;0.00;0.00;0.62;;;;;15.70;2.10;;;;;;2272612;61;2076;-89
2023/07/27 03:04:23;486664.00;1.62;838.87;0.00;0.00;0.62;;;;;15.70;2.30;;;;;;2272930;61;1600;-88
2023/07/27 03:06:50;755818.00;2.52;1304.18;44340.00;0.15;77.40;;;;;15.70;2.40;;;;;;2273004;61;1041;-89
2023/07/27 03:09:17;641740.00;2.14;1106.35;0.00;0.00;0.62;;;;;15.60;2.20;;;;;;2272852;61;1992;-87
2023/07/27 03:11:45;568323.00;1.89;979.55;5707.00;0.02;10.51;;;;;15.70;2.50;;;;;;2272941;61;1376;-88
2023/07/27 03:14:12;1079856.00;3.60;1874.44;0.00;0.00;0.62;;;;;15.70;1.70;;;;;;2272883;61;1325;-87
2023/07/27 03:16:39;766084.00;2.55;1322.04;125382.00;0.42;217.37;;;;;15.70;2.30;;;;;;2272824;61;1079;-87
2023/07/27 03:19:06;821234.00;2.74;1418.18;107207.00;0.36;186.01;;;;;15.90;1.40;;;;;;2272863;61;1115;-89
2023/07/27 03:21:33;636515.00;2.12;1097.31;80343.00;0.27;139.63;;;;;16.10;1.10;;;;;;2272889;61;1141;-87
2023/07/27 03:24:00;559671.00;1.87;964.63;79679.00;0.27;138.48;;;;;16.10;1.50;;;;;;2272910;61;1104;-88
2023/07/27 03:26:27;528171.00;1.76;910.34;88958.00;0.30;154.51;;;;;16.30;1.10;;;;;;2272801;61;1116;-86
2023/07/27 03:28:55;759379.00;2.53;1310.37;83931.00;0.28;145.83;;;;;16.40;1.00;;;;;;2272818;61;2004;-88
2023/07/27 03:31:24;802195.00;2.67;1384.95;0.00;0.00;0.62;;;;;16.30;1.00;;;;;;2272907;61;936;-88
2023/07/27 03:33:51;1024166.00;3.41;1775.32;120318.00;0.40;208.63;;;;;16.30;1.00;;;;;;2272848;61;1318;-89
2023/07/27 03:36:20;547162.00;1.82;943.07;17900.00;0.06;31.63;;;;;16.10;1.00;;;;;;2272861;61;1005;-86
2023/07/27 03:38:47;609530.00;2.03;1050.68;25545.00;0.09;44.87;;;;;16.30;1.00;;;;;;2272836;61;1053;-86
2023/07/27 03:41:15;1142446.00;3.81;1986.50;158380.00;0.53;274.25;;;;;16.40;1.00;;;;;;2272814;61;998;-87
2023/07/27 03:43:42;685555.00;2.29;1182.20;8237.00;0.03;14.89;;;;;16.40;1.00;;;;;;2272817;61;1356;-88
2023/07/27 03:46:10;612284.00;2.04;1055.44;0.00;0.00;0.62;;;;;16.40;1.00;;;;;;2272772;61;1627;-87
2023/07/27 03:48:37;912090.00;3.04;1577.36;7499.00;0.02;13.62;;;;;16.30;1.00;;;;;;2272736;61;2024;-88
2023/07/27 03:51:04;564004.00;1.88;972.11;15218.00;0.05;26.99;;;;;16.20;1.00;;;;;;2272643;61;1638;-87
2023/07/27 03:53:31;725798.00;2.42;1252.00;21948.00;0.07;38.64;;;;;16.10;1.50;;;;;;2272770;61;1310;-87
2023/07/27 03:56:01;368371.00;1.23;635.44;14553.00;0.05;25.84;;;;;16.00;1.30;;;;;;2272784;61;1017;-86
2023/07/27 03:58:28;377542.00;1.26;651.20;0.00;0.00;0.62;;;;;16.10;1.50;;;;;;2272778;61;966;-86
2023/07/27 04:00:55;952402.00;3.17;1648.35;202095.00;0.67;349.53;;;;;15.90;1.80;;;;;;2272736;61;1107;-86
2023/07/27 04:03:24;588293.00;1.96;1014.01;0.00;0.00;0.62;;;;;15.80;2.00;;;;;;2272573;61;1443;-87
2023/07/27 04:05:51;641513.00;2.14;1105.96;30453.00;0.10;53.37;;;;;15.80;1.80;;;;;;2272724;61;969;-86
2023/07/27 04:08:19;333206.00;1.11;575.00;0.00;0.00;0.62;;;;;15.60;2.20;;;;;;2272693;61;1154;-85
2023/07/27 04:10:46;579160.00;1.93;998.25;0.00;0.00;0.62;;;;;15.70;2.30;;;;;;2272751;61;2001;-88
2023/07/27 04:13:12;561931.00;1.87;968.53;1848.00;0.01;3.82;;;;;15.70;1.70;;;;;;2272659;61;1295;-87
2023/07/27 04:15:39;381919.00;1.27;658.72;0.00;0.00;0.62;;;;;15.40;2.60;;;;;;2272772;61;1137;-89
2023/07/27 04:18:06;460821.00;1.54;794.40;40159.00;0.13;70.16;;;;;15.20;2.80;;;;;;2272727;61;1079;-90
2023/07/27 04:20:35;624164.00;2.08;1075.96;31624.00;0.11;55.39;;;;;15.30;2.80;;;;;;2272770;61;1030;-88
2023/07/27 04:23:02;563240.00;1.88;970.79;0.00;0.00;0.62;;;;;15.60;3.50;;;;;;2272636;61;1384;-86
2023/07/27 04:25:29;518684.00;1.73;894.00;4063.00;0.01;7.66;;;;;15.70;1.90;;;;;;2272549;61;1558;-86
2023/07/27 04:27:56;603485.00;2.01;1040.24;9605.00;0.03;17.26;;;;;15.90;1.10;;;;;;2272628;61;1114;-88
2023/07/27 04:30:23;733830.00;2.45;1265.95;27039.00;0.09;47.46;;;;;16.00;1.10;;;;;;2272616;61;1910;-87
2023/07/27 04:32:49;717546.00;2.39;1237.68;26603.00;0.09;46.70;;;;;16.10;1.00;;;;;;2272507;61;1544;-87
2023/07/27 04:35:16;442957.00;1.48;763.67;2142.00;0.01;4.33;;;;;16.20;1.00;;;;;;2272718;61;1192;-87
2023/07/27 04:37:45;797196.00;2.66;1376.23;35626.00;0.12;62.32;;;;;16.30;1.00;;;;;;2272628;61;2201;-87
2023/07/27 04:40:13;805284.00;2.68;1390.34;2734.00;0.01;5.36;;;;;16.10;1.00;;;;;;2272586;61;886;-87
2023/07/27 04:42:40;625966.00;2.09;1079.08;23704.00;0.08;41.68;;;;;16.30;1.00;;;;;;2272644;61;1383;-88
2023/07/27 04:45:08;653096.00;2.18;1125.99;50032.00;0.17;87.24;;;;;16.40;1.00;;;;;;2272585;61;1064;-87
2023/07/27 04:47:35;563045.00;1.88;970.45;4013.00;0.01;7.58;;;;;16.40;1.00;;;;;;2272647;61;1085;-87
2023/07/27 04:50:02;585100.00;1.95;1008.50;15523.00;0.05;27.52;;;;;16.40;1.00;;;;;;2272462;61;2012;-86
2023/07/27 04:52:29;682532.00;2.28;1176.96;46409.00;0.15;80.98;;;;;16.30;1.00;;;;;;2272513;61;1274;-87
2023/07/27 04:54:58;583501.00;1.95;1005.74;23426.00;0.08;41.20;;;;;16.20;1.20;;;;;;2272492;61;1573;-86
2023/07/27 04:57:24;497165.00;1.66;856.94;0.00;0.00;0.62;;;;;16.00;1.40;;;;;;2272599;61;977;-88
2023/07/27 04:59:51;223930.00;0.75;387.11;0.00;0.00;0.62;;;;;16.20;1.60;;;;;;2272455;61;1543;-87
2023/07/27 05:02:18;259920.00;0.87;449.01;0.00;0.00;0.62;;;;;16.30;1.40;;;;;;2272450;61;1509;-85
2023/07/27 05:04:45;453432.00;1.51;781.69;0.00;0.00;0.62;;;;;16.40;1.70;;;;;;2272506;61;1631;-87
2023/07/27 05:07:12;378279.00;1.26;652.47;0.00;0.00;0.62;;;;;16.50;1.10;;;;;;2272494;61;1135;-87
2023/07/27 05:09:39;608922.00;2.03;1049.63;19167.00;0.06;33.83;;;;;16.40;1.30;;;;;;2272517;61;1994;-86
2023/07/27 05:12:08;352646.00;1.18;608.41;2438.00;0.01;4.85;;;;;16.60;1.00;;;;;;2272467;61;1369;-86
2023/07/27 05:14:35;544060.00;1.81;937.72;0.00;0.00;0.62;;;;;16.50;1.40;;;;;;2272424;61;1732;-88
2023/07/27 05:17:01;318718.00;1.06;550.09;1765.00;0.01;3.68;;;;;16.70;1.10;;;;;;2272532;61;1019;-85
2023/07/27 05:19:28;433858.00;1.45;748.02;0.00;0.00;0.62;;;;;16.90;1.00;;;;;;2272438;61;1242;-86
2023/07/27 05:21:55;553084.00;1.84;953.28;0.00;0.00;0.62;;;;;16.80;1.00;;;;;;2272457;61;1288;-88
2023/07/27 05:24:22;473466.00;1.58;816.15;0.00;0.00;0.62;;;;;17.20;1.00;;;;;;2272539;61;1035;-86
2023/07/27 05:26:49;522313.00;1.74;900.25;49120.00;0.16;85.66;;;;;17.40;1.00;;;;;;2272493;61;1031;-88
2023/07/27 05:29:17;427934.00;1.43;737.83;10197.00;0.03;18.29;;;;;17.40;1.00;;;;;;2272452;61;1994;-87
2023/07/27 05:31:46;603077.00;2.01;1039.53;23518.00;0.08;41.36;;;;;17.40;1.00;;;;;;2272473;61;1267;-87
2023/07/27 05:34:13;488932.00;1.63;842.77;42048.00;0.14;73.43;;;;;17.30;1.00;;;;;;2272316;61;1588;-86
2023/07/27 05:36:40;403490.00;1.34;695.80;38133.00;0.13;66.66;;;;;17.20;1.30;;;;;;2272462;61;1071;-87
2023/07/27 05:39:07;339345.00;1.13;585.55;0.00;0.00;0.62;;;;;17.20;1.00;;;;;;2272474;61;1127;-86
2023/07/27 05:41:34;293935.00;0.98;507.49;0.00;0.00;0.62;;;;;17.20;1.10;;;;;;2272299;61;1279;-88
2023/07/27 05:44:01;471171.00;1.57;812.20;5521.00;0.02;10.19;;;;;17.20;1.10;;;;;;2272465;61;1153;-88
2023/07/27 05:46:29;780220.00;2.60;1346.65;32744.00;0.11;57.33;;;;;17.10;1.50;;;;;;2272327;61;1526;-86
2023/07/27 05:48:56;716945.00;2.39;1236.64;1183.00;0.00;2.67;;;;;17.10;1.40;;;;;;2272453;61;1231;-86
2023/07/27 05:51:23;761483.00;2.54;1314.03;4064.00;0.01;7.66;;;;;17.00;1.70;;;;;;2272246;61;1938;-84
2023/07/27 05:53:51;553727.00;1.85;954.38;16265.00;0.05;28.80;;;;;17.10;1.70;;;;;;2272343;61;1311;-86
2023/07/27 05:56:18;601662.00;2.01;1037.09;30671.00;0.10;53.74;;;;;17.20;2.00;;;;;;2272296;61;1611;-86
2023/07/27 05:58:45;448769.00;1.50;773.67;0.00;0.00;0.62;;;;;17.30;1.00;;;;;;2272397;61;1071;-85
2023/07/27 06:01:14;715538.00;2.39;1234.19;16623.00;0.06;29.42;;;;;17.20;1.00;;;;;;2272351;61;1559;-86
2023/07/27 06:03:42;595218.00;1.98;1025.96;4507.00;0.02;8.43;;;;;17.20;1.00;;;;;;2272371;61;1398;-89
2023/07/27 06:06:09;5285388.00;17.62;13997.80;2505636.00;8.35;4719.53;;;;;17.20;1.30;;;;;;2272441;61;1137;-88
2023/07/27 06:08:36;350494.00;1.17;604.71;6057.00;0.02;11.12;;;;;17.60;1.00;;;;;;2272265;61;1748;-87
2023/07/27 06:11:04;611591.00;2.04;1054.24;37327.00;0.12;65.26;;;;;18.00;1.00;;;;;;2272279;61;1910;-89
2023/07/27 06:13:31;709448.00;2.36;1223.63;27643.00;0.09;48.50;;;;;18.20;1.00;;;;;;2272287;61;1375;-89
2023/07/27 06:15:58;387166.00;1.29;667.74;18264.00;0.06;32.26;;;;;18.50;1.00;;;;;;2272306;61;1135;-88
2023/07/27 06:18:25;609062.00;2.03;1049.87;33833.00;0.11;59.22;;;;;18.70;1.00;;;;;;2272300;61;1152;-87
2023/07/27 06:20:54;559695.00;1.87;964.67;57922.00;0.19;100.88;;;;;18.90;1.00;;;;;;2272357;61;1142;-87
2023/07/27 06:23:21;606365.00;2.02;1045.21;64207.00;0.21;111.75;;;;;19.20;1.00;;;;;;2272188;61;1364;-86
2023/07/27 06:25:49;612928.00;2.04;1056.55;44494.00;0.15;77.66;;;;;19.40;1.00;;;;;;2272337;61;1160;-88
2023/07/27 06:28:16;513422.00;1.71;884.94;75460.00;0.25;131.19;;;;;19.60;1.00;;;;;;2272123;61;2229;-88
2023/07/27 06:30:43;505184.00;1.68;870.75;22782.00;0.08;40.09;;;;;19.70;1.00;;;;;;2272294;61;1993;-86
2023/07/27 06:33:12;565562.00;1.89;974.79;29707.00;0.10;52.08;;;;;19.80;1.00;;;;;;2272297;61;1314;-87
2023/07/27 06:35:42;765559.00;2.55;1321.12;53453.00;0.18;93.16;;;;;19.90;1.00;;;;;;2272314;61;1121;-87
2023/07/27 06:38:10;743164.00;2.48;1282.17;22464.00;0.07;39.54;;;;;19.70;1.00;;;;;;2272291;61;1130;-88
2023/07/27 06:40:37;731130.00;2.44;1261.26;66344.00;0.22;115.44;;;;;19.90;1.00;;;;;;2272183;61;1644;-87
2023/07/27 06:43:04;728453.00;2.43;1256.62;72432.00;0.24;125.96;;;;;20.10;1.00;;;;;;2272060;61;1453;-87
2023/07/27 06:45:31;770738.00;2.57;1330.14;33034.00;0.11;57.83;;;;;20.10;1.00;;;;;;2272227;61;1288;-88
2023/07/27 06:47:58;631554.00;2.11;1088.74;1972.00;0.01;4.04;;;;;20.00;1.00;;;;;;2272167;61;1230;-87
2023/07/27 06:50:26;635700.00;2.12;1095.90;50447.00;0.17;87.96;;;;;20.20;1.00;;;;;;2272097;61;1986;-88
2023/07/27 06:52:53;675828.00;2.25;1165.35;11996.00;0.04;21.41;;;;;20.40;1.00;;;;;;2272177;61;1369;-88
2023/07/27 06:55:21;456638.00;1.52;787.20;8866.00;0.03;15.98;;;;;20.80;1.00;;;;;;2272160;61;902;-86
2023/07/27 06:57:50;699604.00;2.33;1206.55;57087.00;0.19;99.44;;;;;21.00;1.00;;;;;;2272236;61;1091;-87
2023/07/27 07:00:19;515773.00;1.72;888.98;18999.00;0.06;33.54;;;;;21.50;1.00;;;;;;2272168;61;2205;-87
2023/07/27 07:02:46;523477.00;1.74;902.25;0.00;0.00;0.62;;;;;21.50;1.00;;;;;;2272137;61;1401;-87
2023/07/27 07:05:12;616688.00;2.06;1063.04;13077.00;0.04;23.28;;;;;21.30;1.00;;;;;;2272191;61;1073;-88
2023/07/27 07:07:39;637991.00;2.13;1099.86;22730.00;0.08;40.00;;;;;21.40;1.00;;;;;;2272172;61;1034;-87
2023/07/27 07:10:07;551505.00;1.84;950.55;8425.00;0.03;15.22;;;;;21.50;1.00;;;;;;2272176;61;1915;-87
2023/07/27 07:12:40;499347.00;1.66;860.70;0.00;0.00;0.62;;;;;21.80;1.00;;;;;;2272136;61;1390;-86
2023/07/27 07:15:08;246465.00;0.82;425.87;0.00;0.00;0.62;;;;;22.00;1.00;;;;;;2272141;61;1567;-87
2023/07/27 07:17:35;18045.00;0.06;31.88;0.00;0.00;0.62;;;;;22.10;1.00;;;;;;2272229;61;1017;-86
2023/07/27 07:20:05;297055.00;0.99;512.86;18181.00;0.06;32.12;;;;;22.10;1.00;;;;;;2272133;61;1076;-88
2023/07/27 07:22:31;55745.00;0.19;97.12;0.00;0.00;0.62;;;;;22.00;1.00;;;;;;2272146;61;1264;-86
2023/07/27 07:24:58;194073.00;0.65;335.72;11175.00;0.04;19.98;;;;;21.90;1.00;;;;;;2272131;61;1123;-86
2023/07/27 07:27:25;89641.00;0.30;155.69;0.00;0.00;0.62;;;;;22.00;1.00;;;;;;2272163;61;966;-89
2023/07/27 07:29:53;155907.00;0.52;269.99;0.00;0.00;0.62;;;;;22.10;1.00;;;;;;2272192;61;1987;-86
2023/07/27 07:32:20;176041.00;0.59;304.67;0.00;0.00;0.62;;;;;22.10;1.00;;;;;;2271997;61;1383;-86
2023/07/27 07:34:47;186194.00;0.62;322.16;0.00;0.00;0.62;;;;;22.00;1.00;;;;;;2272171;61;940;-86
2023/07/27 07:37:14;259069.00;0.86;447.55;0.00;0.00;0.62;;;;;22.10;1.00;;;;;;2272009;61;1582;-88
2023/07/27 08:02:13;1209323.00;4.03;2107.08;0.00;0.00;0.62;;;;;22.70;1.00;;;;;;2492654;55;3605;31
2023/07/27 10:55:47;1535216.00;5.12;2709.56;0.00;0.00;0.62;;;;;25.60;1.00;;;;;;836541;56;3577;-88
2023/07/27 11:15:42;1357344.00;4.52;2377.44;0.00;0.00;0.62;;;;;26.20;1.00;;;;;;2387717;40;3554;-86
2023/07/27 11:30:28;929100.00;3.10;1607.29;0.00;0.00;0.62;;;;;26.30;1.00;;;;;;2364501;40;3730;31
2023/07/27 11:55:37;1331531.00;4.44;2329.93;0.00;0.00;0.62;;;;;26.00;1.00;;;;;;2308938;40;3499;-85
2023/07/27 12:12:58;1189111.00;3.96;2070.55;0.00;0.00;0.62;;;;;26.30;1.00;;;;;;2321254;40;3524;-87
2023/07/27 12:37:48;1208427.00;4.03;2105.46;0.00;0.00;0.62;;;;;25.60;1.00;;;;;;2273230;61;1411;-83
2023/07/27 12:40:15;124777.00;0.42;216.32;0.00;0.00;0.62;;;;;25.30;1.00;;;;;;2263209;61;1169;-83
2023/07/27 12:42:42;128973.00;0.43;223.56;0.00;0.00;0.62;;;;;25.50;1.00;;;;;;2270393;61;1380;-83
2023/07/27 12:45:10;174302.00;0.58;301.68;0.00;0.00;0.62;;;;;25.70;1.00;;;;;;2270956;61;1141;-84
2023/07/27 12:47:38;26687.00;0.09;46.85;0.00;0.00;0.62;;;;;25.90;1.00;;;;;;2270737;61;1086;-85
2023/07/27 12:50:06;158624.00;0.53;274.67;0.00;0.00;0.62;;;;;26.00;1.00;;;;;;2271009;61;1205;-84
2023/07/27 12:52:35;115463.00;0.38;200.26;0.00;0.00;0.62;;;;;25.80;1.00;;;;;;2262162;61;2023;-85
2023/07/27 12:55:06;269592.00;0.90;465.64;0.00;0.00;0.62;;;;;26.00;1.00;;;;;;2262424;61;1589;-85
2023/07/27 12:57:33;254492.00;0.85;439.68;0.00;0.00;0.62;;;;;26.20;1.00;;;;;;2254300;61;1024;-84
2023/07/27 13:00:00;159135.00;0.53;275.55;0.00;0.00;0.62;;;;;26.20;1.00;;;;;;2254387;61;1051;-84
2023/07/27 13:04:56;1499892.00;5.00;2642.92;0.00;0.00;0.62;;;;;25.30;1.00;;;;;;2273049;61;1395;-83
2023/07/27 13:07:23;112498.00;0.37;195.14;0.00;0.00;0.62;;;;;24.80;1.00;;;;;;2262964;61;1240;-84
2023/07/27 13:09:51;147891.00;0.49;256.17;0.00;0.00;0.62;;;;;24.90;1.00;;;;;;2262541;61;1785;-85
2023/07/27 13:14:47;1372067.00;4.57;2404.62;0.00;0.00;0.62;;;;;24.70;1.00;;;;;;2273056;61;1402;-85
2023/07/27 13:17:14;219293.00;0.73;379.13;0.00;0.00;0.62;;;;;24.60;1.00;;;;;;2271749;61;1095;-85
2023/07/27 13:19:42;176075.00;0.59;304.73;0.00;0.00;0.62;;;;;24.90;1.00;;;;;;2271116;61;1124;-85
2023/07/27 13:24:37;1186281.00;3.95;2065.44;0.00;0.00;0.62;;;;;24.60;1.00;;;;;;2273098;61;1410;-85
2023/07/27 13:27:04;107609.00;0.36;186.70;0.00;0.00;0.62;;;;;24.80;1.00;;;;;;2262899;61;1119;-85
2023/07/27 13:29:34;139757.00;0.47;242.15;0.00;0.00;0.62;;;;;25.30;1.00;;;;;;2262421;61;1186;-85
2023/07/27 13:32:02;59250.00;0.20;103.18;0.00;0.00;0.62;;;;;25.60;1.00;;;;;;2262288;61;1923;-85
2023/07/27 13:34:29;189696.00;0.63;328.19;33875.00;0.11;59.29;;;;;25.40;1.00;;;;;;2263377;61;1093;-85
2023/07/27 13:46:57;1410129.00;4.70;2475.12;0.00;0.00;0.62;;;;;24.10;1.00;;;;;;2273615;61;1315;-85
2023/07/27 13:59:33;1418265.00;4.73;2490.24;0.00;0.00;0.62;;;;;24.60;1.00;;;;;;2273639;61;1439;-85
2023/07/27 14:37:18;1547556.00;5.16;2732.93;136573.00;0.46;236.66;;;;;24.70;1.00;;;;;;2274224;61;1118;-85
2023/07/27 15:07:26;1390791.00;4.64;2439.26;0.00;0.00;0.62;;;;;25.60;1.00;;;;;;2273707;61;1458;-84
2023/07/27 15:14:49;1241915.00;4.14;2166.19;0.00;0.00;0.62;;;;;26.10;1.00;;;;;;2273277;61;1394;-84
2023/07/27 15:17:17;413179.00;1.38;712.46;6382.00;0.02;11.68;;;;;25.80;1.00;;;;;;2262725;61;1114;-86
2023/07/27 15:19:46;452027.00;1.51;779.27;0.00;0.00;0.62;;;;;26.00;1.00;;;;;;2262273;61;1306;-84
2023/07/27 15:22:13;1160023.00;3.87;2018.11;41844.00;0.14;73.08;;;;;26.30;1.00;;;;;;2262982;61;1379;-85
2023/07/27 15:27:11;1499472.00;5.00;2642.13;0.00;0.00;0.62;;;;;25.90;1.00;;;;;;2272990;61;1427;-85
2023/07/27 15:29:39;472548.00;1.58;814.57;0.00;0.00;0.62;;;;;26.10;1.00;;;;;;2270662;61;1090;-85
2023/07/27 15:32:07;637102.00;2.12;1098.33;7664.00;0.03;13.90;;;;;26.40;1.00;;;;;;2270916;61;2005;-85
2023/07/27 15:34:35;728668.00;2.43;1256.99;43254.00;0.14;75.52;;;;;26.70;1.00;;;;;;2270864;61;1624;-85
2023/07/27 15:37:02;446466.00;1.49;769.70;0.00;0.00;0.62;;;;;26.80;1.00;;;;;;2271171;61;1725;-85
2023/07/27 15:39:29;597025.00;1.99;1029.08;0.00;0.00;0.62;;;;;26.60;1.00;;;;;;2271413;61;1152;-85
2023/07/27 15:44:27;1657867.00;5.53;2943.85;14704.00;0.05;26.10;;;;;26.00;1.00;;;;;;2272528;61;1393;-86
2023/07/27 15:49:21;1990022.00;6.63;3603.86;51002.00;0.17;88.92;;;;;26.10;1.00;;;;;;2272640;61;1379;-86
2023/07/27 15:51:48;498095.00;1.66;858.54;0.00;0.00;0.62;;;;;25.90;1.00;;;;;;2271043;61;1925;-85
2023/07/27 15:54:15;498994.00;1.66;860.09;10864.00;0.04;19.45;;;;;25.70;1.00;;;;;;2271235;61;1667;-85
2023/07/27 15:56:42;663658.00;2.21;1144.27;24910.00;0.08;43.77;;;;;25.80;1.00;;;;;;2271466;61;1633;-85
2023/07/27 15:59:09;724037.00;2.41;1248.95;39838.00;0.13;69.61;;;;;25.80;1.00;;;;;;2270970;61;1168;-85
2023/07/27 16:01:38;698851.00;2.33;1205.25;70701.00;0.24;122.97;;;;;25.70;1.00;;;;;;2271196;61;1650;-85
2023/07/27 16:04:05;468515.00;1.56;807.63;52296.00;0.17;91.16;;;;;25.90;1.00;;;;;;2271339;61;1297;-84
2023/07/27 16:06:33;375166.00;1.25;647.12;0.00;0.00;0.62;;;;;26.20;1.00;;;;;;2272144;61;1616;-84